Time;durP1;ratioP1;P1;durP2;ratioP2;P2;SDS_P1;SDS_P2;PMS_P1;PMS_P2;Temp;Humidity;BMP_temperature;BMP_pressure;BME280_temperature;BME280_humidity;BME280_pressure;Samples;Min_cycle;Max_cycle;Signal;HPM_P1;HPM_P2
2022/04/12 00:00:09;;;;;;;5.53;2.40;;;3.20;91.80;;;;;;4995030;28;20220;-81
2022/04/12 00:02:38;;;;;;;5.50;2.20;;;3.20;92.00;;;;;;5008397;28;20324;-81
2022/04/12 00:05:06;;;;;;;4.37;2.30;;;3.10;91.90;;;;;;5015151;28;20222;-81
2022/04/12 00:07:33;;;;;;;4.63;2.23;;;3.10;92.10;;;;;;4996619;28;20289;-81
2022/04/12 00:09:59;;;;;;;4.00;2.37;;;3.10;92.20;;;;;;4993888;28;20289;-83
2022/04/12 00:12:26;;;;;;;4.93;2.20;;;3.10;92.20;;;;;;4992258;28;20572;-83
2022/04/12 00:14:53;;;;;;;5.00;2.30;;;3.10;92.30;;;;;;5009218;28;20249;-83
2022/04/12 00:20:07;;;;;;;7.40;2.27;;;3.00;92.50;;;;;;5009471;28;20264;-82
2022/04/12 00:22:34;;;;;;;6.60;2.50;;;3.00;92.40;;;;;;5008614;28;20256;-82
2022/04/12 00:25:01;;;;;;;7.30;2.57;;;3.00;92.50;;;;;;4991146;28;20383;-80
2022/04/12 00:27:28;;;;;;;4.13;2.10;;;2.90;92.70;;;;;;5005159;28;21531;-81
2022/04/12 00:29:55;;;;;;;3.20;1.80;;;2.80;92.70;;;;;;4993513;28;20221;-81
2022/04/12 00:32:23;;;;;;;5.33;2.30;;;2.90;92.80;;;;;;4991194;28;20298;-82
2022/04/12 00:34:50;;;;;;;5.07;2.57;;;2.90;92.90;;;;;;4992885;28;20240;-81
2022/04/12 00:37:17;;;;;;;5.10;2.50;;;2.90;92.90;;;;;;5010008;28;20282;-82
2022/04/12 00:39:44;;;;;;;8.07;2.50;;;2.90;92.90;;;;;;4994134;28;20256;-81
2022/04/12 00:42:12;;;;;;;3.73;2.20;;;2.90;93.00;;;;;;5009530;28;20222;-82
2022/04/12 00:44:39;;;;;;;5.50;2.30;;;2.90;93.10;;;;;;5008384;28;20235;-82
2022/04/12 00:47:06;;;;;;;4.27;2.40;;;2.90;93.10;;;;;;4991107;28;20287;-81
2022/04/12 00:49:34;;;;;;;3.40;2.40;;;2.90;93.10;;;;;;4985883;28;20294;-83
2022/04/12 00:52:01;;;;;;;6.13;2.97;;;2.90;93.10;;;;;;4994412;28;20737;-81
2022/04/12 00:54:28;;;;;;;4.43;2.30;;;2.90;93.10;;;;;;4992383;28;20241;-82
2022/04/12 00:56:55;;;;;;;5.47;2.43;;;2.80;93.20;;;;;;4993764;28;20237;-82
2022/04/12 00:59:26;;;;;;;5.77;2.90;;;2.80;93.10;;;;;;5010942;28;20232;-82
2022/04/12 01:01:53;;;;;;;5.77;2.27;;;2.80;93.40;;;;;;4990453;28;20226;-82
2022/04/12 01:04:20;;;;;;;5.73;2.30;;;2.80;93.40;;;;;;4984590;28;20228;-81
2022/04/12 01:06:48;;;;;;;4.13;2.40;;;2.80;93.40;;;;;;4991088;28;20230;-81
2022/04/12 01:09:15;;;;;;;5.33;2.20;;;2.80;93.50;;;;;;4991984;28;20243;-81
2022/04/12 01:11:48;;;;;;;5.50;2.40;;;2.80;93.40;;;;;;5013075;28;20228;-80
2022/04/12 01:14:15;;;;;;;5.70;2.70;;;2.80;93.50;;;;;;5007213;28;20497;-82
2022/04/12 01:16:42;;;;;;;5.70;2.40;;;2.80;93.60;;;;;;5013949;28;20229;-82
2022/04/12 01:19:09;;;;;;;2.90;2.20;;;2.80;93.70;;;;;;4994306;28;20784;-80
2022/04/12 01:21:46;;;;;;;4.40;2.43;;;2.80;93.70;;;;;;5013127;28;20232;-81
2022/04/12 01:24:14;;;;;;;6.47;2.40;;;2.80;93.90;;;;;;4991933;28;20227;-81
2022/04/12 01:26:42;;;;;;;5.87;2.60;;;2.80;93.80;;;;;;4985276;28;20253;-81
2022/04/12 01:29:09;;;;;;;5.97;2.57;;;2.90;93.80;;;;;;5009417;28;20356;-80
2022/04/12 01:31:35;;;;;;;5.33;2.40;;;2.90;93.90;;;;;;4992252;28;20676;-81
2022/04/12 01:34:02;;;;;;;6.97;2.70;;;2.90;93.90;;;;;;4991286;28;20292;-81
2022/04/12 01:36:29;;;;;;;5.27;2.70;;;2.90;93.90;;;;;;5009282;28;20300;-81
2022/04/12 01:38:56;;;;;;;9.10;2.70;;;2.90;94.00;;;;;;5009338;28;20229;-83
2022/04/12 01:41:24;;;;;;;5.73;2.77;;;2.90;94.10;;;;;;4994395;28;20642;-82
2022/04/12 01:43:52;;;;;;;3.27;2.33;;;2.90;94.10;;;;;;5007439;28;20229;-81
2022/04/12 01:46:18;;;;;;;3.17;2.37;;;2.90;94.10;;;;;;5009921;28;20757;-81
2022/04/12 01:48:47;;;;;;;6.47;2.73;;;2.90;94.10;;;;;;5012431;28;20791;-82
2022/04/12 01:51:14;;;;;;;6.17;3.00;;;3.00;94.30;;;;;;5012329;28;20229;-82
2022/04/12 01:53:41;;;;;;;5.93;2.50;;;2.90;94.20;;;;;;4991255;28;20231;-81
2022/04/12 01:56:08;;;;;;;5.97;2.50;;;3.00;94.10;;;;;;5011049;28;20232;-82
2022/04/12 01:58:36;;;;;;;6.97;2.77;;;3.00;94.20;;;;;;4994454;28;20288;-81
2022/04/12 02:01:03;;;;;;;4.13;2.33;;;3.00;94.20;;;;;;5012577;28;20481;-82
2022/04/12 02:03:30;;;;;;;6.27;2.90;;;3.00;94.20;;;;;;4996713;28;20237;-81
2022/04/12 02:05:57;;;;;;;4.77;2.43;;;3.00;94.20;;;;;;5004753;28;20255;-81
2022/04/12 02:08:24;;;;;;;7.37;2.27;;;3.00;94.20;;;;;;4994031;28;20248;-81
2022/04/12 02:10:51;;;;;;;4.63;2.37;;;3.00;94.20;;;;;;4994435;28;20568;-82
2022/04/12 02:13:17;;;;;;;7.13;3.00;;;3.00;94.30;;;;;;5007697;28;20233;-82
2022/04/12 02:15:45;;;;;;;9.43;3.17;;;3.00;94.40;;;;;;4998624;28;20226;-82
2022/04/12 02:18:12;;;;;;;5.13;2.40;;;3.00;94.40;;;;;;4991829;28;20707;-82
2022/04/12 02:20:39;;;;;;;4.53;2.43;;;2.90;94.30;;;;;;4989445;28;20226;-82
2022/04/12 02:23:06;;;;;;;4.53;2.53;;;2.90;94.30;;;;;;4991118;28;20218;-82
2022/04/12 02:25:33;;;;;;;8.60;2.90;;;2.90;94.40;;;;;;4991893;28;20229;-81
2022/04/12 02:28:00;;;;;;;4.50;2.40;;;2.90;94.50;;;;;;5008303;28;20666;-81
2022/04/12 02:30:26;;;;;;;4.90;2.57;;;2.90;94.50;;;;;;4992740;28;20231;-81
2022/04/12 02:32:54;;;;;;;5.97;2.43;;;2.90;94.50;;;;;;5007877;28;20229;-82
2022/04/12 02:35:21;;;;;;;4.40;2.83;;;2.80;94.50;;;;;;4990855;28;20557;-81
2022/04/12 02:37:48;;;;;;;4.73;2.60;;;2.80;94.40;;;;;;5016227;28;20240;-81
2022/04/12 02:40:15;;;;;;;4.13;2.57;;;2.80;94.50;;;;;;4991702;28;20218;-81
2022/04/12 02:42:42;;;;;;;6.13;2.40;;;2.80;94.50;;;;;;4993438;28;20228;-81
2022/04/12 02:45:09;;;;;;;5.37;2.50;;;2.80;94.50;;;;;;4993800;28;20637;-81
2022/04/12 02:47:35;;;;;;;6.20;2.30;;;2.80;94.60;;;;;;4990070;28;20246;-81
2022/04/12 02:50:04;;;;;;;4.97;2.70;;;2.80;94.60;;;;;;5010197;28;20229;-82
2022/04/12 02:52:31;;;;;;;4.27;2.57;;;2.70;94.70;;;;;;5008595;28;20247;-81
2022/04/12 02:54:58;;;;;;;5.47;2.77;;;2.70;94.60;;;;;;5008332;28;20231;-81
2022/04/12 02:57:24;;;;;;;8.93;3.20;;;2.70;94.70;;;;;;5008767;28;20226;-83
2022/04/12 02:59:51;;;;;;;4.93;2.50;;;2.70;94.80;;;;;;4994811;28;20463;-82
2022/04/12 03:02:18;;;;;;;4.23;2.37;;;2.70;94.80;;;;;;4993855;28;20366;-83
2022/04/12 03:04:45;;;;;;;6.20;2.60;;;2.70;94.80;;;;;;5005719;28;20229;-83
2022/04/12 03:07:14;;;;;;;5.30;2.80;;;2.70;94.90;;;;;;5009912;28;20285;-81
2022/04/12 03:09:41;;;;;;;6.13;3.17;;;2.70;95.00;;;;;;4990489;28;20315;-82
2022/04/12 03:12:09;;;;;;;5.17;3.07;;;2.70;95.00;;;;;;4992679;28;20220;-81
2022/04/12 03:14:36;;;;;;;6.47;2.40;;;2.70;95.00;;;;;;5010969;28;20226;-82
2022/04/12 03:17:03;;;;;;;4.27;2.60;;;2.70;95.00;;;;;;4990659;28;20309;-83
2022/04/12 03:19:30;;;;;;;6.87;2.80;;;2.70;95.10;;;;;;5008463;28;20237;-81
2022/04/12 03:21:57;;;;;;;6.10;2.80;;;2.70;95.10;;;;;;5012474;28;20217;-83
2022/04/12 03:24:25;;;;;;;5.13;2.90;;;2.70;95.30;;;;;;4991580;28;20226;-81
2022/04/12 03:26:52;;;;;;;8.93;2.83;;;2.70;95.20;;;;;;4995910;28;20248;-84
2022/04/12 03:29:18;;;;;;;4.83;2.90;;;2.70;95.00;;;;;;4992154;28;20237;-83
2022/04/12 03:31:45;;;;;;;5.57;2.73;;;2.70;95.10;;;;;;4994272;28;20256;-82
2022/04/12 03:34:12;;;;;;;4.87;2.70;;;2.70;95.20;;;;;;5007560;28;20226;-82
2022/04/12 03:36:39;;;;;;;3.87;2.30;;;2.70;95.10;;;;;;4991982;28;20521;-81
2022/04/12 03:39:05;;;;;;;5.97;3.03;;;2.70;95.20;;;;;;4989311;28;20226;-82
2022/04/12 03:41:34;;;;;;;6.33;3.17;;;2.70;95.20;;;;;;4999153;28;20234;-82
2022/04/12 03:44:01;;;;;;;5.97;2.63;;;2.70;95.40;;;;;;5011370;28;20234;-81
2022/04/12 03:46:27;;;;;;;5.13;2.60;;;2.70;95.30;;;;;;4991159;28;20244;-82
2022/04/12 03:48:54;;;;;;;6.70;3.00;;;2.70;95.30;;;;;;4998136;28;20229;-81
2022/04/12 03:51:21;;;;;;;5.47;2.70;;;2.70;95.20;;;;;;4989398;28;20311;-81
2022/04/12 03:53:49;;;;;;;5.80;2.80;;;2.70;95.30;;;;;;5005145;28;20635;-82
2022/04/12 03:56:16;;;;;;;7.20;3.40;;;2.70;95.30;;;;;;4993751;28;20753;-81
2022/04/12 03:58:44;;;;;;;5.03;2.70;;;2.70;95.30;;;;;;5007841;28;20234;-84
2022/04/12 04:01:11;;;;;;;4.33;3.13;;;2.70;95.40;;;;;;5009635;28;20275;-83
2022/04/12 04:03:38;;;;;;;6.17;2.80;;;2.70;95.30;;;;;;4998735;28;20225;-82
2022/04/12 04:06:05;;;;;;;5.97;2.87;;;2.70;95.30;;;;;;4994403;28;20323;-83
2022/04/12 04:08:32;;;;;;;4.90;2.97;;;2.70;95.40;;;;;;4989210;28;21010;-82
2022/04/12 04:10:59;;;;;;;6.97;2.90;;;2.70;95.40;;;;;;4990705;28;20733;-79
2022/04/12 04:13:26;;;;;;;6.10;3.20;;;2.70;95.40;;;;;;4983960;28;20310;-80
2022/04/12 04:15:54;;;;;;;6.00;3.03;;;2.70;95.40;;;;;;5004143;28;20267;-79
2022/04/12 04:18:22;;;;;;;5.63;2.93;;;2.70;95.40;;;;;;4989157;28;20226;-79
2022/04/12 04:20:49;;;;;;;5.77;3.30;;;2.60;95.40;;;;;;5003950;28;20225;-79
2022/04/12 04:23:16;;;;;;;5.93;3.07;;;2.60;95.50;;;;;;4990187;28;20249;-80
2022/04/12 04:25:43;;;;;;;6.37;3.53;;;2.60;95.50;;;;;;5005398;28;20914;-80
2022/04/12 04:28:11;;;;;;;5.80;3.60;;;2.70;95.50;;;;;;5004616;28;20271;-80
2022/04/12 04:30:39;;;;;;;5.70;3.20;;;2.60;95.40;;;;;;5001307;28;20230;-80
2022/04/12 04:33:08;;;;;;;4.57;3.30;;;2.70;95.60;;;;;;4990367;28;20520;-80
2022/04/12 04:35:35;;;;;;;4.17;2.70;;;2.60;95.60;;;;;;4988197;28;20249;-80
2022/04/12 04:38:02;;;;;;;6.50;3.50;;;2.60;95.60;;;;;;5011970;28;20241;-80
2022/04/12 04:40:28;;;;;;;5.90;3.50;;;2.70;95.60;;;;;;5003114;28;20225;-80
2022/04/12 04:42:55;;;;;;;7.33;2.73;;;2.70;95.60;;;;;;5005515;28;20711;-80
2022/04/12 04:45:22;;;;;;;5.40;3.17;;;2.70;95.60;;;;;;4995586;28;20268;-80
2022/04/12 04:47:51;;;;;;;4.37;3.00;;;2.70;95.70;;;;;;5014684;28;20225;-80
2022/04/12 04:50:20;;;;;;;7.83;2.80;;;2.70;95.80;;;;;;5011091;28;20757;-80
2022/04/12 04:52:47;;;;;;;6.20;3.37;;;2.80;95.80;;;;;;4994297;28;20243;-80
2022/04/12 04:55:14;;;;;;;5.30;2.80;;;2.80;96.10;;;;;;4994309;28;20322;-80
2022/04/12 04:57:42;;;;;;;6.73;2.93;;;2.80;95.90;;;;;;5006928;28;20226;-80
2022/04/12 05:00:15;;;;;;;5.67;3.07;;;2.90;95.80;;;;;;4990985;28;20228;-81
2022/04/12 05:02:42;;;;;;;5.13;2.80;;;2.90;95.80;;;;;;5010767;28;20280;-81
2022/04/12 05:05:10;;;;;;;7.87;3.30;;;3.00;95.80;;;;;;5009351;28;20237;-81
2022/04/12 05:07:38;;;;;;;6.50;2.90;;;3.00;95.80;;;;;;5009012;28;20233;-81
2022/04/12 05:10:06;;;;;;;5.23;3.07;;;3.10;95.80;;;;;;4997905;28;20289;-80
2022/04/12 05:12:33;;;;;;;5.37;2.90;;;3.20;95.90;;;;;;5010525;28;20267;-81
2022/04/12 05:15:00;;;;;;;4.90;2.93;;;3.20;95.80;;;;;;5009061;28;20860;-81
2022/04/12 05:17:27;;;;;;;6.57;3.03;;;3.30;95.80;;;;;;5008983;28;20231;-82
2022/04/12 05:19:56;;;;;;;5.00;2.90;;;3.40;95.80;;;;;;5008112;28;20232;-82
2022/04/12 05:22:24;;;;;;;5.87;2.90;;;3.50;95.80;;;;;;4996307;28;20218;-82
2022/04/12 05:24:52;;;;;;;8.60;3.03;;;3.50;95.80;;;;;;4987977;28;20444;-81
2022/04/12 05:27:19;;;;;;;5.47;3.13;;;3.60;95.60;;;;;;4992701;28;20234;-83
2022/04/12 05:29:46;;;;;;;4.63;2.93;;;3.70;95.60;;;;;;5015360;28;20230;-81
2022/04/12 05:32:13;;;;;;;3.93;2.90;;;3.80;95.70;;;;;;5008354;28;20221;-80
2022/04/12 05:34:40;;;;;;;10.03;3.20;;;3.90;95.70;;;;;;4988673;28;20864;-80
2022/04/12 05:37:07;;;;;;;6.37;3.17;;;4.00;95.60;;;;;;4992004;28;20234;-83
2022/04/12 05:39:35;;;;;;;5.97;3.13;;;4.00;95.50;;;;;;5008350;28;20230;-80
2022/04/12 05:42:03;;;;;;;4.83;3.00;;;4.10;95.60;;;;;;5008054;28;20292;-79
2022/04/12 05:44:32;;;;;;;4.40;2.70;;;4.20;95.50;;;;;;4985117;28;20608;-81
2022/04/12 05:46:59;;;;;;;4.50;3.20;;;4.30;95.50;;;;;;5003591;28;20251;-79
2022/04/12 05:49:27;;;;;;;4.63;2.70;;;4.40;95.50;;;;;;4985381;28;20228;-80
2022/04/12 05:51:54;;;;;;;3.93;2.80;;;4.50;95.70;;;;;;4981054;28;20278;-80
2022/04/12 05:54:20;;;;;;;4.30;3.00;;;4.60;95.10;;;;;;4980315;28;20237;-81
2022/04/12 05:56:47;;;;;;;6.20;3.20;;;4.70;95.00;;;;;;5005847;28;20229;-80
2022/04/12 05:59:16;;;;;;;5.73;3.00;;;4.70;94.80;;;;;;5009108;28;20220;-82
2022/04/12 06:01:43;;;;;;;6.13;2.87;;;4.80;94.80;;;;;;4992551;28;20222;-81
2022/04/12 06:04:10;;;;;;;3.97;2.80;;;4.90;94.80;;;;;;4986524;28;20246;-82
2022/04/12 06:06:38;;;;;;;4.23;2.70;;;4.90;94.80;;;;;;4989946;28;20751;-79
2022/04/12 06:09:05;;;;;;;5.90;3.03;;;5.10;94.80;;;;;;5005340;28;20654;-81
2022/04/12 06:11:32;;;;;;;6.10;3.03;;;5.10;94.60;;;;;;4990148;28;20258;-81
2022/04/12 06:13:59;;;;;;;6.50;2.43;;;5.20;94.60;;;;;;4992092;28;20237;-80
2022/04/12 06:16:27;;;;;;;4.73;2.93;;;5.30;94.50;;;;;;4991156;28;20231;-81
2022/04/12 06:18:55;;;;;;;4.03;2.87;;;5.40;94.40;;;;;;5012357;28;20254;-81
2022/04/12 06:21:22;;;;;;;5.93;2.90;;;5.50;94.30;;;;;;4993041;28;20303;-80
2022/04/12 06:23:49;;;;;;;4.47;2.70;;;5.60;94.30;;;;;;4989475;28;20867;-80
2022/04/12 06:26:16;;;;;;;4.67;2.70;;;5.70;94.20;;;;;;5004449;28;20446;-80
2022/04/12 06:28:42;;;;;;;6.10;2.70;;;5.90;94.30;;;;;;4992161;28;20230;-81
2022/04/12 06:31:09;;;;;;;4.43;2.63;;;6.00;93.60;;;;;;5008162;28;20241;-81
2022/04/12 06:33:37;;;;;;;3.43;2.50;;;6.10;93.80;;;;;;4991874;28;20227;-80
2022/04/12 06:36:05;;;;;;;5.90;3.10;;;6.20;93.60;;;;;;4991345;28;20234;-80
2022/04/12 06:38:32;;;;;;;4.10;2.77;;;6.30;93.60;;;;;;4989623;28;20298;-81
2022/04/12 06:40:59;;;;;;;5.23;2.70;;;6.40;93.40;;;;;;5010809;28;20222;-81
2022/04/12 06:43:26;;;;;;;5.33;2.87;;;6.50;93.30;;;;;;5009585;28;20227;-80
2022/04/12 06:45:53;;;;;;;3.47;2.37;;;6.60;93.00;;;;;;5007122;28;20290;-80
2022/04/12 06:48:20;;;;;;;4.93;2.53;;;6.70;93.00;;;;;;5009883;28;20228;-82
2022/04/12 06:50:48;;;;;;;6.10;3.00;;;6.80;92.80;;;;;;4985627;28;20641;-82
2022/04/12 06:53:14;;;;;;;4.67;2.80;;;6.90;92.60;;;;;;5011422;28;20289;-82
2022/04/12 06:55:41;;;;;;;5.70;2.90;;;7.00;92.60;;;;;;4985116;28;20237;-81
2022/04/12 06:58:08;;;;;;;4.50;2.30;;;7.10;92.20;;;;;;4992445;28;20248;-81
2022/04/12 07:00:36;;;;;;;3.67;2.47;;;7.20;91.90;;;;;;5012899;28;20224;-80
2022/04/12 07:03:03;;;;;;;4.27;2.90;;;7.30;91.90;;;;;;5009860;28;20238;-80
2022/04/12 07:05:29;;;;;;;4.50;2.70;;;7.40;91.80;;;;;;5008781;28;20232;-79
2022/04/12 07:07:57;;;;;;;5.00;2.47;;;7.40;91.80;;;;;;4984135;28;20232;-79
2022/04/12 07:10:24;;;;;;;3.53;2.70;;;7.50;91.70;;;;;;5003476;28;20248;-80
2022/04/12 07:12:53;;;;;;;5.87;2.40;;;7.60;91.40;;;;;;4988398;28;20229;-82
2022/04/12 07:15:21;;;;;;;5.50;2.83;;;7.70;91.40;;;;;;4986676;28;20228;-81
2022/04/12 07:17:48;;;;;;;3.53;2.60;;;7.70;91.50;;;;;;4986595;28;21066;-80
2022/04/12 07:20:14;;;;;;;4.20;2.80;;;7.80;91.40;;;;;;5006482;28;20273;-80
2022/04/12 07:22:42;;;;;;;7.30;2.97;;;7.90;91.30;;;;;;4984351;28;20234;-80
2022/04/12 07:25:10;;;;;;;3.33;2.43;;;8.00;91.00;;;;;;5005689;28;20323;-80
2022/04/12 07:27:38;;;;;;;4.13;2.10;;;8.10;90.70;;;;;;5003327;28;20231;-80
2022/04/12 07:30:07;;;;;;;5.57;2.70;;;8.20;90.70;;;;;;4985487;28;20227;-81
2022/04/12 07:32:33;;;;;;;8.23;2.87;;;8.30;90.60;;;;;;5006666;28;20400;-83
2022/04/12 07:35:00;;;;;;;10.60;5.57;;;8.40;90.60;;;;;;5006141;28;20233;-82
2022/04/12 07:37:27;;;;;;;4.87;2.77;;;8.50;90.80;;;;;;5010044;28;20232;-82
2022/04/12 07:39:55;;;;;;;7.83;3.00;;;8.60;90.70;;;;;;4991364;28;20533;-82
2022/04/12 07:42:24;;;;;;;4.23;2.83;;;8.70;90.50;;;;;;5006217;28;20276;-81
2022/04/12 07:44:50;;;;;;;3.60;2.60;;;8.90;90.50;;;;;;4987832;28;20229;-81
2022/04/12 07:47:17;;;;;;;2.90;2.20;;;9.10;90.40;;;;;;5005879;28;20232;-80
2022/04/12 07:49:44;;;;;;;4.47;2.60;;;9.20;90.20;;;;;;4984784;28;20229;-80
2022/04/12 07:52:11;;;;;;;4.37;2.90;;;9.40;90.00;;;;;;4983614;28;20259;-82
2022/04/12 07:54:37;;;;;;;4.37;2.37;;;9.60;89.60;;;;;;4980024;28;20221;-80
2022/04/12 07:57:05;;;;;;;2.97;2.33;;;9.80;89.50;;;;;;5000550;28;20412;-80
2022/04/12 07:59:33;;;;;;;3.03;2.60;;;10.10;89.10;;;;;;5001477;28;20252;-81
2022/04/12 08:02:00;;;;;;;4.40;3.23;;;10.40;88.20;;;;;;5008736;28;20229;-81
2022/04/12 08:04:27;;;;;;;3.73;2.53;;;10.70;88.00;;;;;;5010491;28;20286;-81
2022/04/12 08:06:54;;;;;;;4.13;2.60;;;11.10;87.60;;;;;;4988904;28;20306;-81
2022/04/12 08:09:21;;;;;;;4.03;2.67;;;11.40;87.40;;;;;;5010794;28;20264;-81
2022/04/12 08:11:47;;;;;;;3.27;2.60;;;11.80;86.70;;;;;;5009547;28;21160;-80
2022/04/12 08:14:15;;;;;;;5.77;2.80;;;12.20;85.80;;;;;;5005673;28;20333;-82
2022/04/12 08:16:43;;;;;;;4.57;2.50;;;12.50;85.10;;;;;;4984064;28;20882;-80
2022/04/12 08:19:09;;;;;;;3.17;2.77;;;12.90;84.10;;;;;;4984927;28;20829;-81
2022/04/12 08:21:37;;;;;;;6.13;2.73;;;13.30;82.70;;;;;;5009619;28;20648;-81
2022/04/12 08:24:05;;;;;;;4.87;2.80;;;13.60;81.40;;;;;;4950971;28;1188060;-80
2022/04/12 08:26:32;;;;;;;3.23;2.43;;;13.90;80.50;;;;;;4991159;28;20232;-81
2022/04/12 08:28:59;;;;;;;3.47;2.70;;;14.10;79.50;;;;;;5002547;28;20236;-81
2022/04/12 08:31:25;;;;;;;6.60;2.90;;;14.20;76.50;;;;;;4988611;28;20240;-81
2022/04/12 08:33:53;;;;;;;5.40;2.63;;;14.30;74.60;;;;;;5004146;28;21050;-81
2022/04/12 08:36:22;;;;;;;3.67;2.53;;;14.40;75.00;;;;;;4990070;28;20226;-81
2022/04/12 08:38:51;;;;;;;5.07;2.80;;;14.50;74.30;;;;;;5008305;28;20228;-81
2022/04/12 08:41:19;;;;;;;5.73;2.70;;;14.70;74.80;;;;;;5007608;28;20234;-80
2022/04/12 08:43:46;;;;;;;3.07;2.50;;;14.90;74.70;;;;;;5008162;28;21109;-82
2022/04/12 08:46:13;;;;;;;4.43;2.73;;;15.20;73.50;;;;;;5010556;28;20220;-81
2022/04/12 08:48:40;;;;;;;4.60;2.90;;;15.50;74.10;;;;;;5011050;28;20283;-82
2022/04/12 08:51:09;;;;;;;6.00;2.97;;;15.80;72.80;;;;;;5011851;28;20315;-80
2022/04/12 08:53:37;;;;;;;5.30;2.90;;;16.10;71.30;;;;;;4989043;28;20233;-82
2022/04/12 08:56:04;;;;;;;3.87;2.50;;;16.50;70.40;;;;;;5006173;28;20221;-82
2022/04/12 08:58:31;;;;;;;5.30;3.47;;;16.70;69.30;;;;;;5009141;28;20322;-82
2022/04/12 09:00:58;;;;;;;3.63;3.10;;;17.10;68.40;;;;;;5008173;28;20237;-82
2022/04/12 09:03:25;;;;;;;5.00;3.20;;;17.30;63.90;;;;;;5009540;28;20339;-83
2022/04/12 09:05:52;;;;;;;6.83;3.17;;;17.50;65.80;;;;;;5009787;28;20233;-82
2022/04/12 09:08:29;;;;;;;5.43;3.60;;;17.80;66.00;;;;;;5008140;28;20236;-82
2022/04/12 09:11:01;;;;;;;4.80;3.70;;;18.10;61.00;;;;;;5012327;28;20228;-82
2022/04/12 09:13:30;;;;;;;5.15;3.70;;;18.50;62.80;;;;;;5010518;28;20239;-82
2022/04/12 09:15:58;;;;;;;5.07;4.07;;;18.80;62.50;;;;;;4994820;28;20225;-82
2022/04/12 09:18:36;;;;;;;6.93;4.13;;;19.10;60.70;;;;;;5018293;28;20247;-81
2022/04/12 09:21:11;;;;;;;5.60;4.75;;;19.30;56.60;;;;;;5012070;28;20229;-81
2022/04/12 09:23:42;;;;;;;6.35;4.85;;;19.50;56.30;;;;;;5007367;28;20709;-83
2022/04/12 09:26:09;;;;;;;6.57;4.60;;;19.70;56.60;;;;;;4993830;28;20225;-81
2022/04/12 09:28:41;;;;;;;5.65;4.38;;;19.80;57.40;;;;;;4992522;28;20225;-82
2022/04/12 09:31:14;;;;;;;6.07;4.30;;;19.90;57.30;;;;;;4993064;28;20227;-81
2022/04/12 09:33:41;;;;;;;6.60;4.93;;;20.10;57.20;;;;;;4996222;28;20232;-82
2022/04/12 09:36:08;;;;;;;6.68;5.07;;;20.20;57.10;;;;;;5015966;28;20229;-80
2022/04/12 09:38:37;;;;;;;6.65;4.78;;;20.30;54.90;;;;;;4992981;28;20236;-82
2022/04/12 09:41:19;;;;;;;8.10;4.90;;;20.50;55.70;;;;;;5008597;28;20240;-80
2022/04/12 09:43:54;;;;;;;8.60;4.75;;;20.50;51.50;;;;;;5002783;28;20263;-80
2022/04/12 09:46:21;;;;;;;6.53;4.40;;;20.40;50.00;;;;;;5008886;28;20719;-81
2022/04/12 09:48:49;;;;;;;8.83;5.80;;;20.30;52.30;;;;;;5007931;28;20237;-82
2022/04/12 09:51:18;;;;;;;7.47;5.40;;;20.10;50.10;;;;;;4985077;28;20237;-82
2022/04/12 09:53:46;;;;;;;8.63;5.63;;;19.70;51.10;;;;;;5008493;28;20771;-82
2022/04/12 09:56:22;;;;;;;7.68;5.50;;;19.60;52.00;;;;;;5004153;28;20300;-81
2022/04/12 09:58:51;;;;;;;9.33;6.50;;;19.40;51.30;;;;;;5007736;28;20229;-81
2022/04/12 10:01:19;;;;;;;9.70;6.10;;;19.20;50.20;;;;;;5002461;28;20838;-81
2022/04/12 10:03:49;;;;;;;8.60;5.97;;;19.00;49.90;;;;;;5007860;28;20225;-81
2022/04/12 10:06:19;;;;;;;7.57;5.53;;;18.70;50.20;;;;;;4985930;28;20235;-81
2022/04/12 10:08:47;;;;;;;6.90;5.20;;;18.40;50.30;;;;;;5008359;28;21019;-81
2022/04/12 10:11:14;;;;;;;7.67;5.73;;;18.20;53.40;;;;;;5007848;28;20244;-81
2022/04/12 10:13:43;;;;;;;8.93;5.93;;;18.10;52.90;;;;;;4994932;28;20225;-82
2022/04/12 10:16:11;;;;;;;8.20;5.80;;;17.90;51.10;;;;;;5008998;28;20256;-81
2022/04/12 10:18:39;;;;;;;8.03;6.20;;;17.70;52.10;;;;;;5009569;28;21702;-82
2022/04/12 10:21:06;;;;;;;8.53;5.77;;;17.60;53.30;;;;;;4985332;28;20745;-81
2022/04/12 10:23:34;;;;;;;7.43;5.97;;;17.50;53.40;;;;;;5007480;28;20315;-81
2022/04/12 10:26:02;;;;;;;6.97;5.43;;;17.30;52.00;;;;;;4991084;28;20230;-82
2022/04/12 10:28:30;;;;;;;7.33;5.20;;;17.10;53.00;;;;;;5011873;28;20233;-80
2022/04/12 10:31:20;;;;;;;8.60;5.40;;;17.00;53.70;;;;;;4989121;28;20229;-81
2022/04/12 10:34:04;;;;;;;9.23;6.33;;;16.90;53.80;;;;;;5009134;28;20327;-80
2022/04/12 10:37:04;;;;;;;7.67;5.50;;;16.80;53.60;;;;;;4995182;28;20233;-81
2022/04/12 10:39:33;;;;;;;9.10;5.33;;;16.60;53.60;;;;;;4999175;28;20236;-81
2022/04/12 10:42:04;;;;;;;8.40;5.50;;;16.50;54.20;;;;;;5006021;28;20256;-81
2022/04/12 10:44:38;;;;;;;9.40;5.40;;;16.40;54.20;;;;;;4987901;28;20766;-81
2022/04/12 10:47:06;;;;;;;8.03;5.30;;;16.20;53.80;;;;;;4991213;28;20355;-81
2022/04/12 10:49:37;;;;;;;7.57;5.73;;;16.10;53.60;;;;;;5011627;28;20237;-81
2022/04/12 10:52:08;;;;;;;8.50;5.57;;;16.00;54.10;;;;;;4995940;28;20221;-81
2022/04/12 10:54:36;;;;;;;8.97;5.60;;;16.00;55.20;;;;;;5008862;28;20236;-81
2022/04/12 10:57:23;;;;;;;8.70;5.67;;;16.00;55.60;;;;;;5011706;28;20256;-81
2022/04/12 10:59:53;;;;;;;8.43;5.20;;;16.10;55.70;;;;;;5007440;28;20225;-81
2022/04/12 11:02:22;;;;;;;8.93;6.00;;;16.30;56.10;;;;;;4987129;28;20315;-80
2022/04/12 11:04:49;;;;;;;7.40;5.33;;;16.60;56.00;;;;;;4991666;28;20233;-80
2022/04/12 11:07:29;;;;;;;8.67;5.07;;;16.80;55.70;;;;;;5008743;28;20236;-81
2022/04/12 11:10:07;;;;;;;7.97;5.60;;;17.20;55.00;;;;;;5011338;28;20225;-81
2022/04/12 11:12:41;;;;;;;7.40;5.30;;;17.40;54.90;;;;;;5005452;28;20255;-80
2022/04/12 11:15:21;;;;;;;7.37;5.50;;;17.70;55.70;;;;;;4989804;28;20229;-80
2022/04/12 11:17:50;;;;;;;8.97;6.00;;;18.00;54.30;;;;;;4992132;28;20309;-80
2022/04/12 11:20:23;;;;;;;9.90;6.00;;;18.30;54.30;;;;;;5010529;28;20236;-81
2022/04/12 11:22:57;;;;;;;9.07;6.03;;;18.50;53.30;;;;;;4991339;28;20583;-81
2022/04/12 11:25:26;;;;;;;8.20;5.90;;;18.70;53.10;;;;;;5008757;28;20217;-81
2022/04/12 11:27:56;;;;;;;7.70;5.93;;;18.80;51.70;;;;;;5010133;28;20252;-80
2022/04/12 11:30:25;;;;;;;8.93;6.15;;;18.80;50.60;;;;;;4988652;28;20248;-81
2022/04/12 11:32:55;;;;;;;8.98;5.07;;;18.80;51.30;;;;;;4991182;28;20241;-82
2022/04/12 11:35:23;;;;;;;8.57;6.27;;;18.80;51.50;;;;;;5006579;28;20230;-81
2022/04/12 11:37:50;;;;;;;8.82;6.10;;;18.90;52.10;;;;;;5002484;28;20234;-82
2022/04/12 11:40:17;;;;;;;7.53;5.93;;;18.90;52.80;;;;;;5004700;28;20623;-81
2022/04/12 11:42:44;;;;;;;8.32;5.85;;;18.90;50.60;;;;;;4988949;28;20339;-80
2022/04/12 11:45:11;;;;;;;8.17;6.00;;;18.90;51.20;;;;;;4986152;28;20644;-80
2022/04/12 11:47:43;;;;;;;7.95;6.05;;;18.90;51.60;;;;;;4990946;28;20247;-81
2022/04/12 11:50:21;;;;;;;7.78;5.75;;;18.90;51.70;;;;;;5010420;28;20225;-81
2022/04/12 11:52:47;;;;;;;6.32;5.10;;;19.10;51.90;;;;;;5013931;28;20248;-81
2022/04/12 11:55:14;;;;;;;8.27;5.80;;;19.20;51.40;;;;;;4992975;28;20804;-81
2022/04/12 11:57:41;;;;;;;10.55;6.60;;;19.30;49.90;;;;;;4991982;28;20240;-81
2022/04/12 12:00:09;;;;;;;7.55;5.90;;;19.30;49.90;;;;;;4993324;28;20229;-80
2022/04/12 12:02:38;;;;;;;7.53;5.57;;;19.40;51.30;;;;;;4997039;28;20756;-81
2022/04/12 12:05:07;;;;;;;8.20;6.00;;;19.50;51.90;;;;;;4993560;28;20217;-81
2022/04/12 12:07:37;;;;;;;8.52;6.05;;;19.50;50.30;;;;;;5011210;28;20239;-81
2022/04/12 12:10:06;;;;;;;8.70;6.18;;;19.60;49.60;;;;;;4996245;28;20233;-81
2022/04/12 12:12:34;;;;;;;9.75;6.60;;;19.60;49.40;;;;;;4994110;28;20309;-80
2022/04/12 12:15:15;;;;;;;6.75;5.57;;;19.50;49.00;;;;;;5010635;28;20226;-81
2022/04/12 12:17:44;;;;;;;7.57;6.00;;;19.50;50.30;;;;;;4995548;28;20329;-80
2022/04/12 12:20:11;;;;;;;8.77;6.45;;;19.30;49.70;;;;;;5014394;28;20764;-80
2022/04/12 12:22:43;;;;;;;9.27;6.43;;;19.30;49.90;;;;;;5021045;28;20229;-81
2022/04/12 12:25:18;;;;;;;8.85;7.00;;;19.30;51.00;;;;;;5011769;28;20562;-80
2022/04/12 12:27:50;;;;;;;10.60;6.70;;;19.40;50.70;;;;;;5012783;28;20229;-81
2022/04/12 12:30:20;;;;;;;8.50;6.05;;;19.50;50.70;;;;;;5010152;28;20280;-81
2022/04/12 12:32:50;;;;;;;8.63;6.45;;;19.70;51.40;;;;;;5012924;28;20620;-82
2022/04/12 12:35:17;;;;;;;8.25;6.45;;;19.80;50.40;;;;;;5012031;28;20772;-81
2022/04/12 12:37:47;;;;;;;10.10;6.13;;;20.00;51.30;;;;;;5005829;28;20228;-81
2022/04/12 12:40:20;;;;;;;8.82;6.18;;;20.10;50.10;;;;;;5010258;28;20236;-82
2022/04/12 12:42:47;;;;;;;8.25;6.22;;;20.20;49.90;;;;;;4992940;28;20225;-82
2022/04/12 12:45:16;;;;;;;9.10;6.72;;;20.20;49.80;;;;;;5010914;28;20225;-82
2022/04/12 12:47:45;;;;;;;8.32;6.75;;;20.20;50.10;;;;;;4992112;28;20221;-82
2022/04/12 12:50:13;;;;;;;8.15;6.30;;;20.20;49.60;;;;;;5010643;28;20229;-82
2022/04/12 12:52:41;;;;;;;8.32;6.75;;;20.30;49.20;;;;;;5011003;28;20243;-81
2022/04/12 12:55:18;;;;;;;11.80;7.70;;;20.30;50.10;;;;;;5009636;28;20237;-82
2022/04/12 12:57:46;;;;;;;7.43;6.15;;;20.30;49.20;;;;;;5010695;28;20229;-82
2022/04/12 13:00:14;;;;;;;10.50;7.18;;;20.30;49.70;;;;;;5010201;28;20969;-82